CTSO2: Bird Creek At Catoosa

Data processed at Tue May 21 2019 23:50


All information presented herein is the property of the government of the United States of America and may be revised or deleted at any time without prior notice.
Dissemination of this information without the expressed written consent of the Public Affairs Office, Tulsa District U.S. Army Corps of Engineers is strictly prohibited.
These data are gathered electronically and, as presented, have not undergone any form of quality control. These data are not guaranteed to be valid or correct.
Go to home page.
Go to station list.
Go to home page.

Upstream stations:

Downstream station:
Previous Day
Next Day
Current Day
    
SHEF ID:       CTSO2     Bird Ck at State Highway 266 nea
STATION TYPE:  
Regulating: Stage =    26.00, Flow =    19016

                STAGE  STAGE(2)  RIV-FLOW  WTR-TEMP   DIS-OXY        PH   CONDUCT  BAT-LOAD
                   ft        ft       cfs         F      mg/l        su   umho/cm      volt
              Ccp-Rev   Ccp-Rev   Ccp-Rev   Ccp-Rev   Ccp-Rev   Ccp-Rev   Ccp-Rev   Ccp-Rev
(US/Central)
05/21 00:00     20.95     20.47     13581     64.80      7.50      7.66       185     12.57
05/21 01:00     23.56     23.21     16327     64.81      7.42      7.71       155     12.57
05/21 02:00     25.61     25.23     18579     64.69      7.44      7.78       133     12.57
05/21 03:00     27.03     26.59     20183     64.58      7.54      7.73       130     12.49
05/21 04:00     27.89     27.49     21173     64.49      7.50      7.73       135     12.49
05/21 05:00     28.41     28.03     21776     64.31      7.47      7.67       134     12.49
05/21 06:00     28.71     28.36     22126     64.11      7.45      7.60       133     12.49
05/21 07:00     28.93     28.52     22384     63.93      7.40      7.50       127     12.49
05/21 08:00     29.05     28.68     22525     63.77      7.35      7.48       125     12.49
05/21 09:00     29.18     28.81     22678     63.61      7.28      7.51       125     12.49
05/21 10:00     29.33     28.94     22855     63.48      7.25      7.56       128     12.49
05/21 11:00     29.52     29.15     23080     63.37      7.23      7.52       127     12.65
05/21 12:00     29.68     29.29     23269     63.32      7.18      7.49       124     12.97
05/21 13:00     29.81     29.42     23424     63.30      7.12      7.43       120     13.05
05/21 14:00     29.87     29.51     23495     63.36      7.03      7.41       120     13.21
05/21 15:00     29.90     29.54     23531     63.46      6.88      7.32       117     13.53
05/21 16:00     29.89     29.52     23519     63.52      6.73      7.29       115     13.37
05/21 17:00     29.86     29.50     23483     63.50      6.60      7.23       112     13.05
05/21 18:00     29.83     29.50     23448     63.52      6.44      7.19       107     12.97
05/21 19:00     29.81     29.45     23424     63.50      6.32      7.17       106     12.89
05/21 20:00     29.84     29.48     23460     63.48      6.23      7.15       106     12.81
05/21 21:00     29.82     29.44     23436     63.46      6.19      7.15       111     12.65
05/21 22:00     29.87     29.49     23495     63.45      6.13      7.08       110     12.65
05/21 23:00     29.88     29.52     23507     63.43      6.11      7.12       110     12.65